createdAt,value
2022-09-30T00:00:06.793Z,7.10
2022-09-30T00:01:09.291Z,7.10
2022-09-30T00:02:12.197Z,7.00
2022-09-30T00:03:14.371Z,6.90
2022-09-30T00:04:24.731Z,6.90
2022-09-30T00:05:26.342Z,6.90
2022-09-30T00:06:29.622Z,6.90
2022-09-30T00:07:31.193Z,6.90
2022-09-30T00:08:32.930Z,6.90
2022-09-30T00:09:34.553Z,6.90
2022-09-30T00:10:36.170Z,6.90
2022-09-30T00:11:39.259Z,7.00
2022-09-30T00:12:41.642Z,7.00
2022-09-30T00:13:45.628Z,7.00
2022-09-30T00:14:47.210Z,7.00
2022-09-30T00:15:48.863Z,7.00
2022-09-30T00:16:50.512Z,7.00
2022-09-30T00:17:52.080Z,7.00
2022-09-30T00:18:56.366Z,7.00
2022-09-30T00:19:57.937Z,7.00
2022-09-30T00:20:59.834Z,6.90
2022-09-30T00:22:01.532Z,7.00
2022-09-30T00:23:03.104Z,7.00
2022-09-30T00:24:05.597Z,6.90
2022-09-30T00:25:07.408Z,6.80
2022-09-30T00:26:12.434Z,6.80
2022-09-30T00:27:18.047Z,6.80
2022-09-30T00:28:19.614Z,6.70
2022-09-30T00:29:21.280Z,6.70
2022-09-30T00:30:22.892Z,6.70
2022-09-30T00:31:26.901Z,6.70
2022-09-30T00:32:28.609Z,6.70
2022-09-30T00:33:30.307Z,6.70
2022-09-30T00:34:31.895Z,6.60
2022-09-30T00:35:33.763Z,6.60
2022-09-30T00:36:55.486Z,6.70
2022-09-30T00:37:57.208Z,6.60
2022-09-30T00:38:58.797Z,6.60
2022-09-30T00:40:00.563Z,6.70
2022-09-30T00:41:03.318Z,6.70
2022-09-30T00:42:10.888Z,6.70
2022-09-30T00:43:39.162Z,6.70
2022-09-30T00:44:53.364Z,6.70
2022-09-30T00:45:59.372Z,6.70
2022-09-30T00:47:01.066Z,6.80
2022-09-30T00:48:15.220Z,6.80
2022-09-30T00:49:22.619Z,6.90
2022-09-30T00:50:24.297Z,6.80
2022-09-30T00:51:36.705Z,6.80
2022-09-30T00:52:38.819Z,6.80
2022-09-30T00:53:52.349Z,6.70
2022-09-30T00:54:55.282Z,6.70
2022-09-30T00:56:04.909Z,6.60
2022-09-30T00:57:09.096Z,6.60
2022-09-30T00:58:15.102Z,6.60
2022-09-30T00:59:21.597Z,6.60
2022-09-30T01:00:23.412Z,6.70
2022-09-30T01:01:25.356Z,6.70
2022-09-30T01:02:27.142Z,6.70
2022-09-30T01:03:35.241Z,6.70
2022-09-30T01:04:38.287Z,6.70
2022-09-30T01:05:40.180Z,6.70
2022-09-30T01:06:42.337Z,6.70
2022-09-30T01:07:44.315Z,6.70
2022-09-30T01:08:46.924Z,6.60
2022-09-30T01:09:49.367Z,6.50
2022-09-30T01:10:51.014Z,6.40
2022-09-30T01:11:53.187Z,6.30
2022-09-30T01:12:55.696Z,6.30
2022-09-30T01:14:02.208Z,6.30
2022-09-30T01:15:05.059Z,6.30
2022-09-30T01:16:22.397Z,6.20
2022-09-30T01:17:49.125Z,6.20
2022-09-30T01:19:06.514Z,6.30
2022-09-30T01:20:45.552Z,6.30
2022-09-30T01:22:31.964Z,6.30
2022-09-30T01:24:00.306Z,6.30
2022-09-30T01:25:01.862Z,6.40
2022-09-30T01:26:28.236Z,6.40
2022-09-30T01:27:52.268Z,6.40
2022-09-30T01:29:15.777Z,6.40
2022-09-30T01:30:45.770Z,6.40
2022-09-30T01:32:19.572Z,6.40
2022-09-30T01:33:42.633Z,6.40
2022-09-30T01:35:17.976Z,6.30
2022-09-30T01:36:46.555Z,6.30
2022-09-30T01:38:22.164Z,6.40
2022-09-30T01:39:55.598Z,6.40
2022-09-30T01:41:02.951Z,6.30
2022-09-30T01:42:18.989Z,6.40
2022-09-30T01:43:39.292Z,6.40
2022-09-30T01:45:10.932Z,6.40
2022-09-30T01:46:37.142Z,6.40
2022-09-30T01:47:59.619Z,6.40
2022-09-30T01:49:19.077Z,6.30
2022-09-30T01:50:23.296Z,6.20
2022-09-30T01:51:35.066Z,6.20
2022-09-30T01:52:49.230Z,6.10
2022-09-30T01:53:55.666Z,6.10
2022-09-30T01:55:03.934Z,6.00
2022-09-30T01:56:17.449Z,6.00
2022-09-30T01:57:22.799Z,6.00
2022-09-30T01:58:53.115Z,6.00
2022-09-30T01:59:59.093Z,5.90
2022-09-30T02:01:06.090Z,6.00
2022-09-30T02:02:18.484Z,6.20
2022-09-30T02:03:29.500Z,6.20
2022-09-30T02:04:42.408Z,6.20
2022-09-30T02:05:57.803Z,6.30
2022-09-30T02:07:07.386Z,6.30
2022-09-30T02:08:18.464Z,6.30
2022-09-30T02:09:32.832Z,6.30
2022-09-30T02:10:39.746Z,6.30
2022-09-30T02:11:42.389Z,6.20
2022-09-30T02:12:57.804Z,6.20
2022-09-30T02:14:31.479Z,6.20
2022-09-30T02:15:40.567Z,6.20
2022-09-30T02:16:48.206Z,6.10
2022-09-30T02:18:02.501Z,6.20
2022-09-30T02:19:23.017Z,6.20
2022-09-30T02:20:35.202Z,6.20
2022-09-30T02:21:41.697Z,6.20
2022-09-30T02:22:49.981Z,6.20
2022-09-30T02:23:57.825Z,6.20
2022-09-30T02:25:05.584Z,6.10
2022-09-30T02:26:18.727Z,6.00
2022-09-30T02:27:30.001Z,6.00
2022-09-30T02:28:32.817Z,5.90
2022-09-30T02:29:39.558Z,5.90
2022-09-30T02:30:47.806Z,5.90
2022-09-30T02:31:53.949Z,5.80
2022-09-30T02:33:07.000Z,5.90
2022-09-30T02:34:16.318Z,5.90
2022-09-30T02:35:30.485Z,5.80
2022-09-30T02:37:00.589Z,5.80
2022-09-30T02:38:06.506Z,5.80
2022-09-30T02:39:15.226Z,5.80
2022-09-30T02:40:23.325Z,5.80
2022-09-30T02:41:28.023Z,5.80
2022-09-30T02:42:31.078Z,5.80
2022-09-30T02:43:34.026Z,5.80
2022-09-30T02:44:36.820Z,5.80
2022-09-30T02:46:03.592Z,5.80
2022-09-30T02:47:14.598Z,5.90
2022-09-30T02:48:29.782Z,5.90
2022-09-30T02:49:46.484Z,6.00
2022-09-30T02:51:05.108Z,6.00
2022-09-30T02:52:54.610Z,5.90
2022-09-30T02:54:28.098Z,5.90
2022-09-30T02:55:56.918Z,5.80
2022-09-30T02:57:11.750Z,5.80
2022-09-30T02:58:18.449Z,5.80
2022-09-30T02:59:21.535Z,5.80
2022-09-30T03:00:24.142Z,5.80
2022-09-30T03:01:25.975Z,5.80
2022-09-30T03:02:28.465Z,5.80
2022-09-30T03:03:34.997Z,5.90
2022-09-30T03:04:41.354Z,5.90
2022-09-30T03:05:43.865Z,5.90
2022-09-30T03:06:45.643Z,5.90
2022-09-30T03:07:47.392Z,5.90
2022-09-30T03:08:49.161Z,5.90
2022-09-30T03:09:56.919Z,5.90
2022-09-30T03:10:58.788Z,5.90
2022-09-30T03:12:26.561Z,5.90
2022-09-30T03:14:06.488Z,5.90
2022-09-30T03:15:22.502Z,5.90
2022-09-30T03:16:38.961Z,5.80
2022-09-30T03:18:14.932Z,5.80
2022-09-30T03:19:42.254Z,5.80
2022-09-30T03:20:58.936Z,5.80
2022-09-30T03:22:16.423Z,5.80
2022-09-30T03:23:38.289Z,5.80
2022-09-30T03:25:04.380Z,5.70
2022-09-30T03:26:12.252Z,5.60
2022-09-30T03:27:19.321Z,5.50
2022-09-30T03:28:46.805Z,5.50
2022-09-30T03:30:08.388Z,5.50
2022-09-30T03:31:20.178Z,5.60
2022-09-30T03:32:46.244Z,5.60
2022-09-30T03:34:02.985Z,5.60
2022-09-30T03:35:19.145Z,5.60
2022-09-30T03:36:40.407Z,5.60
2022-09-30T03:38:00.671Z,5.60
2022-09-30T03:39:25.018Z,5.60
2022-09-30T03:40:41.289Z,5.60
2022-09-30T03:42:10.590Z,5.70
2022-09-30T03:43:29.580Z,5.70
2022-09-30T03:44:40.118Z,5.70
2022-09-30T03:46:08.717Z,5.70
2022-09-30T03:47:14.511Z,5.70
2022-09-30T03:48:16.867Z,5.70
2022-09-30T03:49:29.869Z,5.70
2022-09-30T03:50:33.652Z,5.60
2022-09-30T03:51:38.385Z,5.60
2022-09-30T03:52:40.223Z,5.60
2022-09-30T03:53:43.615Z,5.60
2022-09-30T03:54:51.972Z,5.50
2022-09-30T03:55:54.023Z,5.50
2022-09-30T03:56:55.624Z,5.50
2022-09-30T03:57:58.375Z,5.50
2022-09-30T03:59:00.797Z,5.50
2022-09-30T04:00:02.859Z,5.40
2022-09-30T04:01:04.533Z,5.50
2022-09-30T04:02:07.211Z,5.50
2022-09-30T04:03:08.884Z,5.50
2022-09-30T04:04:10.476Z,5.50
2022-09-30T04:05:12.590Z,5.50
2022-09-30T04:06:14.885Z,5.50
2022-09-30T04:07:16.600Z,5.60
2022-09-30T04:08:18.216Z,5.60
2022-09-30T04:09:19.848Z,5.60
2022-09-30T04:10:21.514Z,5.60
2022-09-30T04:11:23.099Z,5.60
2022-09-30T04:12:24.795Z,5.60
2022-09-30T04:13:26.393Z,5.60
2022-09-30T04:14:28.052Z,5.60
2022-09-30T04:15:29.646Z,5.50
2022-09-30T04:16:31.989Z,5.50
2022-09-30T04:17:33.807Z,5.50
2022-09-30T04:18:37.209Z,5.40
2022-09-30T04:19:40.247Z,5.40
2022-09-30T04:20:41.995Z,5.40
2022-09-30T04:21:43.683Z,5.40
2022-09-30T04:22:45.283Z,5.40
2022-09-30T04:23:46.974Z,5.40
2022-09-30T04:24:48.555Z,5.40
2022-09-30T04:25:54.374Z,5.40
2022-09-30T04:26:55.952Z,5.40
2022-09-30T04:27:57.777Z,5.40
2022-09-30T04:28:59.456Z,5.40
2022-09-30T04:30:01.096Z,5.40
2022-09-30T04:31:05.076Z,5.40
2022-09-30T04:32:06.800Z,5.40
2022-09-30T04:33:08.438Z,5.40
2022-09-30T04:34:11.767Z,5.40
2022-09-30T04:35:14.557Z,5.40
2022-09-30T04:36:18.072Z,5.40
2022-09-30T04:37:20.107Z,5.40
2022-09-30T04:38:22.296Z,5.40
2022-09-30T04:39:24.022Z,5.30
2022-09-30T04:40:26.123Z,5.30
2022-09-30T04:41:27.788Z,5.30
2022-09-30T04:42:29.351Z,5.30
2022-09-30T04:43:31.589Z,5.30
2022-09-30T04:44:33.202Z,5.20
2022-09-30T04:45:34.816Z,5.20
2022-09-30T04:46:37.041Z,5.20
2022-09-30T04:47:39.905Z,5.10
2022-09-30T04:48:45.836Z,5.20
2022-09-30T04:49:47.543Z,5.10
2022-09-30T04:50:49.368Z,5.10
2022-09-30T04:51:50.940Z,5.10
2022-09-30T04:52:52.706Z,5.00
2022-09-30T04:53:54.455Z,5.00
2022-09-30T04:54:56.080Z,4.90
2022-09-30T04:56:01.827Z,5.00
2022-09-30T04:57:03.527Z,5.10
2022-09-30T04:58:05.144Z,5.10
2022-09-30T04:59:07.065Z,5.10
2022-09-30T05:00:09.595Z,5.00
2022-09-30T05:01:13.924Z,5.10
2022-09-30T05:02:15.603Z,5.00
2022-09-30T05:03:18.409Z,5.10
2022-09-30T05:04:20.092Z,5.10
2022-09-30T05:05:21.731Z,5.10
2022-09-30T05:06:23.378Z,5.00
2022-09-30T05:07:25.018Z,5.00
2022-09-30T05:08:27.284Z,5.00
2022-09-30T05:09:28.948Z,5.00
2022-09-30T05:10:30.628Z,5.00
2022-09-30T05:11:32.704Z,5.00
2022-09-30T05:12:34.879Z,5.00
2022-09-30T05:13:40.988Z,4.90
2022-09-30T05:14:42.618Z,5.00
2022-09-30T05:15:44.197Z,5.00
2022-09-30T05:16:45.774Z,5.00
2022-09-30T05:17:49.408Z,4.90
2022-09-30T05:18:51.199Z,4.90
2022-09-30T05:19:52.961Z,5.00
2022-09-30T05:20:57.467Z,4.90
2022-09-30T05:21:59.058Z,4.90
2022-09-30T05:23:01.085Z,4.80
2022-09-30T05:24:03.208Z,4.70
2022-09-30T05:25:05.500Z,4.70
2022-09-30T05:26:11.909Z,4.70
2022-09-30T05:27:14.054Z,4.60
2022-09-30T05:28:15.800Z,4.70
2022-09-30T05:29:17.528Z,4.70
2022-09-30T05:30:19.158Z,4.70
2022-09-30T05:31:20.927Z,4.70
2022-09-30T05:32:22.787Z,4.80
2022-09-30T05:33:24.554Z,4.70
2022-09-30T05:34:26.269Z,4.70
2022-09-30T05:35:28.610Z,4.60
2022-09-30T05:36:30.414Z,4.70
2022-09-30T05:37:33.327Z,4.70
2022-09-30T05:38:35.160Z,4.70
2022-09-30T05:39:36.756Z,4.70
2022-09-30T05:40:39.742Z,4.70
2022-09-30T05:41:41.441Z,4.80
2022-09-30T05:42:47.271Z,4.80
2022-09-30T05:43:49.563Z,4.80
2022-09-30T05:44:51.154Z,4.80
2022-09-30T05:45:57.100Z,4.80
2022-09-30T05:46:59.615Z,4.90
2022-09-30T05:48:01.861Z,4.80
2022-09-30T05:49:03.594Z,4.80
2022-09-30T05:50:06.256Z,4.90
2022-09-30T05:51:08.033Z,4.90
2022-09-30T05:52:09.601Z,4.90
2022-09-30T05:53:11.187Z,4.90
2022-09-30T05:54:12.848Z,4.90
2022-09-30T05:55:14.626Z,4.90
2022-09-30T05:56:16.440Z,4.90
2022-09-30T05:57:18.033Z,5.00
2022-09-30T05:58:21.160Z,5.00
2022-09-30T05:59:22.841Z,5.00
2022-09-30T06:00:24.573Z,5.00
2022-09-30T06:01:26.299Z,5.10
2022-09-30T06:02:28.021Z,5.10
2022-09-30T06:03:29.665Z,5.20
2022-09-30T06:04:31.318Z,5.20
2022-09-30T06:05:32.921Z,5.20
2022-09-30T06:06:34.554Z,5.20
2022-09-30T06:07:37.062Z,5.20
2022-09-30T06:08:40.197Z,5.20
2022-09-30T06:09:41.944Z,5.30
2022-09-30T06:10:44.728Z,5.30
2022-09-30T06:11:46.333Z,5.30
2022-09-30T06:12:48.139Z,5.40
2022-09-30T06:13:49.907Z,5.40
2022-09-30T06:14:51.496Z,5.40
2022-09-30T06:16:00.628Z,5.40
2022-09-30T06:17:02.274Z,5.40
2022-09-30T06:18:04.239Z,5.40
2022-09-30T06:19:06.766Z,5.50
2022-09-30T06:20:10.289Z,5.50
2022-09-30T06:21:14.195Z,5.50
2022-09-30T06:22:16.827Z,5.50
2022-09-30T06:23:18.500Z,5.50
2022-09-30T06:24:20.156Z,5.60
2022-09-30T06:25:22.276Z,5.50
2022-09-30T06:26:24.098Z,5.50
2022-09-30T06:27:25.701Z,5.50
2022-09-30T06:28:27.579Z,5.50
2022-09-30T06:29:29.199Z,5.50
2022-09-30T06:30:35.067Z,5.50
2022-09-30T06:31:37.253Z,5.50
2022-09-30T06:32:39.159Z,5.50
2022-09-30T06:33:42.178Z,5.50
2022-09-30T06:34:44.008Z,5.40
2022-09-30T06:35:47.382Z,5.40
2022-09-30T06:36:48.969Z,5.50
2022-09-30T06:37:53.918Z,5.50
2022-09-30T06:38:55.500Z,5.50
2022-09-30T06:39:57.126Z,5.60
2022-09-30T06:40:59.946Z,5.60
2022-09-30T06:42:01.596Z,5.70
2022-09-30T06:43:04.571Z,5.70
2022-09-30T06:44:08.126Z,5.70
2022-09-30T06:45:19.204Z,5.70
2022-09-30T06:46:31.144Z,5.80
2022-09-30T06:47:33.330Z,5.80
2022-09-30T06:48:38.677Z,5.70
2022-09-30T06:49:49.123Z,5.70
2022-09-30T06:51:01.533Z,5.80
2022-09-30T06:52:03.982Z,5.90
2022-09-30T06:53:07.654Z,6.00
2022-09-30T06:54:09.599Z,6.00
2022-09-30T06:55:11.170Z,6.00
2022-09-30T06:56:12.794Z,5.90
2022-09-30T06:57:14.411Z,5.90
2022-09-30T06:58:16.631Z,5.90
2022-09-30T06:59:18.352Z,6.00
2022-09-30T07:00:20.323Z,6.00
2022-09-30T07:01:22.047Z,6.00
2022-09-30T07:02:23.805Z,5.90
2022-09-30T07:03:29.250Z,5.90
2022-09-30T07:04:30.997Z,6.00
2022-09-30T07:05:32.699Z,6.00
2022-09-30T07:06:34.404Z,6.00
2022-09-30T07:07:36.794Z,6.00
2022-09-30T07:08:38.890Z,6.10
2022-09-30T07:09:40.604Z,6.20
2022-09-30T07:10:42.198Z,6.30
2022-09-30T07:11:44.377Z,6.30
2022-09-30T07:12:52.796Z,6.40
2022-09-30T07:13:55.417Z,6.40
2022-09-30T07:14:57.149Z,6.40
2022-09-30T07:15:58.842Z,6.30
2022-09-30T07:17:03.642Z,6.30
2022-09-30T07:18:05.656Z,6.40
2022-09-30T07:19:10.075Z,6.40
2022-09-30T07:20:11.723Z,6.40
2022-09-30T07:21:18.346Z,6.40
2022-09-30T07:22:34.422Z,6.40
2022-09-30T07:23:36.138Z,6.30
2022-09-30T07:24:37.729Z,6.30
2022-09-30T07:25:39.492Z,6.40
2022-09-30T07:26:41.146Z,6.40
2022-09-30T07:27:42.842Z,6.40
2022-09-30T07:28:45.105Z,6.30
2022-09-30T07:31:31.795Z,6.40
2022-09-30T07:32:33.789Z,6.40
2022-09-30T07:33:35.691Z,6.50
2022-09-30T07:34:37.865Z,6.50
2022-09-30T07:35:39.487Z,6.50
2022-09-30T07:36:41.725Z,6.50
2022-09-30T07:37:43.674Z,6.60
2022-09-30T07:38:49.797Z,6.70
2022-09-30T07:39:51.591Z,6.60
2022-09-30T07:41:26.977Z,6.60
2022-09-30T07:42:29.511Z,6.80
2022-09-30T07:43:40.812Z,6.70
2022-09-30T07:44:44.190Z,6.70
2022-09-30T07:45:46.041Z,6.80
2022-09-30T07:46:48.013Z,6.90
2022-09-30T07:47:53.649Z,6.80
2022-09-30T07:49:00.462Z,6.80
2022-09-30T07:50:04.004Z,6.90
2022-09-30T07:51:05.772Z,6.90
2022-09-30T07:52:08.729Z,6.90
2022-09-30T07:53:10.335Z,6.90
2022-09-30T07:54:16.115Z,6.90
2022-09-30T07:55:17.775Z,6.90
2022-09-30T07:56:20.752Z,6.90
2022-09-30T07:57:22.328Z,7.00
2022-09-30T07:58:24.227Z,7.00
2022-09-30T07:59:27.521Z,7.00
2022-09-30T08:00:44.363Z,7.00
2022-09-30T08:01:46.983Z,7.00
2022-09-30T08:02:48.575Z,7.00
2022-09-30T08:03:53.935Z,7.00
2022-09-30T08:04:55.521Z,6.90
2022-09-30T08:06:02.800Z,6.90
2022-09-30T08:07:05.367Z,6.90
2022-09-30T08:08:07.004Z,7.00
2022-09-30T08:09:09.361Z,7.10
2022-09-30T08:10:11.148Z,7.10
2022-09-30T08:11:14.621Z,7.20
2022-09-30T08:12:16.280Z,7.30
2022-09-30T08:13:19.963Z,7.30
2022-09-30T08:14:26.715Z,7.40
2022-09-30T08:15:28.628Z,7.40
2022-09-30T08:16:30.650Z,7.50
2022-09-30T08:17:32.284Z,7.50
2022-09-30T08:18:33.971Z,7.40
2022-09-30T08:19:36.448Z,7.50
2022-09-30T08:20:38.061Z,7.50
2022-09-30T08:21:39.712Z,7.60
2022-09-30T08:22:41.312Z,7.50
2022-09-30T08:23:42.924Z,7.50
2022-09-30T08:24:44.564Z,7.60
2022-09-30T08:25:46.265Z,7.70
2022-09-30T08:26:47.973Z,7.60
2022-09-30T08:27:49.753Z,7.70
2022-09-30T08:28:51.457Z,7.80
2022-09-30T08:29:56.595Z,7.90
2022-09-30T08:31:07.137Z,8.10
2022-09-30T08:32:08.814Z,8.20
2022-09-30T08:33:10.524Z,8.20
2022-09-30T08:34:12.105Z,8.20
2022-09-30T08:35:13.763Z,8.40
2022-09-30T08:36:18.178Z,8.40
2022-09-30T08:37:19.880Z,8.40
2022-09-30T08:38:21.642Z,8.40
2022-09-30T08:39:23.258Z,8.50
2022-09-30T08:40:28.295Z,8.60
2022-09-30T08:41:55.716Z,8.60
2022-09-30T08:43:39.357Z,8.70
2022-09-30T08:44:47.589Z,8.70
2022-09-30T08:45:55.317Z,8.80
2022-09-30T08:47:03.212Z,8.90
2022-09-30T08:48:33.849Z,8.90
2022-09-30T08:49:47.148Z,9.00
2022-09-30T08:51:06.840Z,9.00
2022-09-30T08:52:24.530Z,9.10
2022-09-30T08:53:42.226Z,9.60
2022-09-30T08:54:47.961Z,10.60
2022-09-30T08:55:50.208Z,11.70
2022-09-30T08:56:52.325Z,12.80
2022-09-30T08:57:56.395Z,13.90
2022-09-30T08:59:26.790Z,14.60
2022-09-30T09:00:28.579Z,15.30
2022-09-30T09:01:44.341Z,16.00
2022-09-30T09:02:51.613Z,16.60
2022-09-30T09:03:53.868Z,17.10
2022-09-30T09:05:01.790Z,17.60
2022-09-30T09:06:03.342Z,18.20
2022-09-30T09:07:09.208Z,18.40
2022-09-30T09:08:39.947Z,18.70
2022-09-30T09:10:05.402Z,19.00
2022-09-30T09:11:30.928Z,19.10
2022-09-30T09:12:46.577Z,19.40
2022-09-30T09:14:00.806Z,19.60
2022-09-30T09:15:37.167Z,19.70
2022-09-30T09:17:15.996Z,19.90
2022-09-30T09:18:29.189Z,20.30
2022-09-30T09:19:41.812Z,20.00
2022-09-30T09:20:58.449Z,20.10
2022-09-30T09:22:02.575Z,20.30
2022-09-30T09:23:08.909Z,20.40
2022-09-30T09:24:18.134Z,20.40
2022-09-30T09:26:26.002Z,20.90
2022-09-30T09:27:36.906Z,21.20
2022-09-30T09:29:10.953Z,21.60
2022-09-30T09:30:17.207Z,21.40
2022-09-30T09:31:20.112Z,21.30
2022-09-30T09:32:21.805Z,21.20
2022-09-30T09:33:29.674Z,21.10
2022-09-30T09:34:31.702Z,20.70
2022-09-30T09:36:03.627Z,20.60
2022-09-30T09:37:50.134Z,20.70
2022-09-30T09:39:08.980Z,21.10
2022-09-30T09:40:24.512Z,21.50
2022-09-30T09:41:37.873Z,21.30
2022-09-30T09:42:57.121Z,21.30
2022-09-30T09:44:13.158Z,21.90
2022-09-30T09:45:36.973Z,21.90
2022-09-30T09:46:48.899Z,22.00
2022-09-30T09:47:51.904Z,22.20
2022-09-30T09:49:50.144Z,22.40
2022-09-30T09:51:03.266Z,22.60
2022-09-30T09:52:13.669Z,22.50
2022-09-30T09:53:33.827Z,22.50
2022-09-30T09:54:41.289Z,22.40
2022-09-30T09:55:42.961Z,22.50
2022-09-30T09:56:44.909Z,22.30
2022-09-30T09:57:47.150Z,22.60
2022-09-30T09:59:08.935Z,22.90
2022-09-30T10:00:39.599Z,23.30
2022-09-30T10:01:45.243Z,23.40
2022-09-30T10:02:58.541Z,23.20
2022-09-30T10:04:15.770Z,23.30
2022-09-30T10:05:26.597Z,23.00
2022-09-30T10:06:52.185Z,23.00
2022-09-30T10:08:10.054Z,23.00
2022-09-30T10:09:33.127Z,23.10
2022-09-30T10:10:50.416Z,23.10
2022-09-30T10:12:07.072Z,23.20
2022-09-30T10:13:20.354Z,23.30
2022-09-30T10:14:22.281Z,23.40
2022-09-30T10:15:26.309Z,23.20
2022-09-30T10:16:38.011Z,23.10
2022-09-30T10:17:40.078Z,23.30
2022-09-30T10:18:42.021Z,23.40
2022-09-30T10:19:57.751Z,23.10
2022-09-30T10:21:08.651Z,22.90
2022-09-30T10:22:11.745Z,23.00
2022-09-30T10:23:28.748Z,23.30
2022-09-30T10:24:31.442Z,23.10
2022-09-30T10:25:33.146Z,23.20
2022-09-30T10:26:47.768Z,23.10
2022-09-30T10:27:50.778Z,23.00
2022-09-30T10:29:05.965Z,23.00
2022-09-30T10:30:08.101Z,23.00
2022-09-30T10:31:34.545Z,23.10
2022-09-30T10:32:36.475Z,23.10
2022-09-30T10:33:47.093Z,22.60
2022-09-30T10:34:56.488Z,22.00
2022-09-30T10:36:08.629Z,21.60
2022-09-30T10:37:22.432Z,20.90
2022-09-30T10:38:29.213Z,20.80
2022-09-30T10:39:33.680Z,20.90
2022-09-30T10:40:35.631Z,21.00
2022-09-30T10:41:38.656Z,21.30
2022-09-30T10:42:41.888Z,21.50
2022-09-30T10:43:49.476Z,21.90
2022-09-30T10:45:02.041Z,22.20
2022-09-30T10:46:25.369Z,22.30
2022-09-30T10:47:26.973Z,22.60
2022-09-30T10:48:33.028Z,22.80
2022-09-30T10:49:49.347Z,22.60
2022-09-30T10:50:53.889Z,22.50
2022-09-30T10:51:57.151Z,22.40
2022-09-30T10:53:00.807Z,22.00
2022-09-30T10:54:04.281Z,21.70
2022-09-30T10:55:29.353Z,21.50
2022-09-30T10:56:44.328Z,21.10
2022-09-30T10:57:47.668Z,20.90
2022-09-30T11:00:14.929Z,20.30
2022-09-30T11:01:27.693Z,20.30
2022-09-30T11:02:29.497Z,20.20
2022-09-30T11:03:38.495Z,19.80
2022-09-30T11:04:48.197Z,19.80
2022-09-30T11:05:50.441Z,19.70
2022-09-30T11:06:58.965Z,19.70
2022-09-30T11:08:19.739Z,19.40
2022-09-30T11:09:33.362Z,19.10
2022-09-30T11:10:57.298Z,18.90
2022-09-30T11:12:10.993Z,18.80
2022-09-30T11:13:24.943Z,18.80
2022-09-30T11:14:55.430Z,18.80
2022-09-30T11:16:09.257Z,18.80
2022-09-30T11:17:37.283Z,18.90
2022-09-30T11:18:49.970Z,18.90
2022-09-30T11:20:09.170Z,19.00
2022-09-30T11:21:19.892Z,18.80
2022-09-30T11:22:58.192Z,18.70
2022-09-30T11:24:15.248Z,18.80
2022-09-30T11:25:24.849Z,18.80
2022-09-30T11:26:40.703Z,18.90
2022-09-30T11:27:54.349Z,18.80
2022-09-30T11:29:34.213Z,18.90
2022-09-30T11:30:44.874Z,19.20
2022-09-30T11:32:27.444Z,19.20
2022-09-30T11:33:45.760Z,19.10
2022-09-30T11:35:24.912Z,19.20
2022-09-30T11:37:00.869Z,19.20
2022-09-30T11:38:39.792Z,19.30
2022-09-30T11:40:15.212Z,19.70
2022-09-30T11:41:38.563Z,19.90
2022-09-30T11:42:46.301Z,20.20
2022-09-30T11:43:53.906Z,20.50
2022-09-30T11:45:25.387Z,20.80
2022-09-30T11:46:30.258Z,20.60
2022-09-30T11:47:50.910Z,20.70
2022-09-30T11:49:04.586Z,21.10
2022-09-30T11:50:30.467Z,21.20
2022-09-30T11:51:45.636Z,21.50
2022-09-30T11:53:13.918Z,21.50
2022-09-30T11:54:30.792Z,21.30
2022-09-30T11:55:41.250Z,21.60
2022-09-30T11:56:57.800Z,21.60
2022-09-30T11:58:40.380Z,22.00
2022-09-30T12:00:01.239Z,22.50
2022-09-30T12:01:21.699Z,22.60
2022-09-30T12:02:38.257Z,22.80
2022-09-30T12:03:45.514Z,22.80
2022-09-30T12:04:48.687Z,22.60
2022-09-30T12:05:59.059Z,22.60
2022-09-30T12:07:12.288Z,22.70
2022-09-30T12:08:36.005Z,22.70
2022-09-30T12:09:44.669Z,22.70
2022-09-30T12:10:54.062Z,22.30
2022-09-30T12:12:16.811Z,22.30
2022-09-30T12:13:26.740Z,22.40
2022-09-30T12:14:34.544Z,22.20
2022-09-30T12:15:37.308Z,22.10
2022-09-30T12:16:39.884Z,22.10
2022-09-30T12:17:46.401Z,22.00
2022-09-30T12:18:57.892Z,21.70
2022-09-30T12:20:16.782Z,21.60
2022-09-30T12:21:26.411Z,21.60
2022-09-30T12:22:33.252Z,21.60
2022-09-30T12:23:49.183Z,21.40
2022-09-30T12:24:50.835Z,21.50
2022-09-30T12:25:58.539Z,21.80
2022-09-30T12:27:01.933Z,22.00
2022-09-30T12:28:29.124Z,22.20
2022-09-30T12:30:04.254Z,21.80
2022-09-30T12:31:43.445Z,22.10
2022-09-30T12:32:46.326Z,22.40
2022-09-30T12:34:19.528Z,22.70
2022-09-30T12:35:36.473Z,22.90
2022-09-30T12:36:59.576Z,23.00
2022-09-30T12:38:19.451Z,22.90
2022-09-30T12:39:35.352Z,22.70
2022-09-30T12:40:52.363Z,22.50
2022-09-30T12:42:13.568Z,22.40
2022-09-30T12:43:17.861Z,22.60
2022-09-30T12:44:41.026Z,22.60
2022-09-30T12:46:09.162Z,22.60
2022-09-30T12:47:49.543Z,22.70
2022-09-30T12:48:59.162Z,22.80
2022-09-30T12:50:07.424Z,22.90
2022-09-30T12:51:10.029Z,22.90
2022-09-30T12:52:15.908Z,22.80
2022-09-30T12:53:18.700Z,22.90
2022-09-30T12:54:37.488Z,23.00
2022-09-30T12:55:41.843Z,23.30
2022-09-30T12:56:46.944Z,23.20
2022-09-30T12:57:49.777Z,23.10
2022-09-30T12:58:52.272Z,23.40
2022-09-30T13:00:02.479Z,23.70
2022-09-30T13:01:15.045Z,24.10
2022-09-30T13:03:03.256Z,23.80
2022-09-30T13:04:04.803Z,23.70
2022-09-30T13:05:31.014Z,23.70
2022-09-30T13:06:47.542Z,23.50
2022-09-30T13:08:04.581Z,23.80
2022-09-30T13:09:11.308Z,23.90
2022-09-30T13:10:28.256Z,23.80
2022-09-30T13:11:48.303Z,23.80
2022-09-30T13:13:19.149Z,23.70
2022-09-30T13:14:39.403Z,23.40
2022-09-30T13:15:45.541Z,23.40
2022-09-30T13:17:02.259Z,23.50
2022-09-30T13:18:26.907Z,23.70
2022-09-30T13:19:40.901Z,23.80
2022-09-30T13:20:56.306Z,23.90
2022-09-30T13:22:19.825Z,23.90
2022-09-30T13:23:39.134Z,24.10
2022-09-30T13:25:00.425Z,23.70
2022-09-30T13:26:02.989Z,23.80
2022-09-30T13:27:13.358Z,24.00
2022-09-30T13:28:15.037Z,23.20
2022-09-30T13:29:16.710Z,22.90
2022-09-30T13:30:18.375Z,23.20
2022-09-30T13:31:25.364Z,23.30
2022-09-30T13:32:37.283Z,23.60
2022-09-30T13:33:44.596Z,23.60
2022-09-30T13:34:55.453Z,24.00
2022-09-30T13:36:07.727Z,23.90
2022-09-30T13:37:34.659Z,23.70
2022-09-30T13:38:40.574Z,23.90
2022-09-30T13:39:53.757Z,24.00
2022-09-30T13:41:02.406Z,24.20
2022-09-30T13:42:07.522Z,24.20
2022-09-30T13:43:22.074Z,23.90
2022-09-30T13:45:02.350Z,23.40
2022-09-30T13:46:30.208Z,23.40
2022-09-30T13:47:39.144Z,23.10
2022-09-30T13:48:48.031Z,23.10
2022-09-30T13:50:02.190Z,22.90
2022-09-30T13:51:14.793Z,22.50
2022-09-30T13:52:28.066Z,22.80
2022-09-30T13:53:40.264Z,23.10
2022-09-30T13:54:47.474Z,23.40
2022-09-30T13:55:53.700Z,23.50
2022-09-30T13:56:56.161Z,23.30
2022-09-30T13:58:23.511Z,22.70
2022-09-30T13:59:55.339Z,22.70
2022-09-30T14:01:18.948Z,23.10
2022-09-30T14:02:42.661Z,23.50
2022-09-30T14:03:56.647Z,23.70
2022-09-30T14:05:42.975Z,23.40
2022-09-30T14:07:10.374Z,23.60
2022-09-30T14:08:49.760Z,23.50
2022-09-30T14:10:14.131Z,23.60
2022-09-30T14:11:23.827Z,23.80
2022-09-30T14:12:46.192Z,23.70
2022-09-30T14:14:22.630Z,23.50
2022-09-30T14:15:45.167Z,23.10
2022-09-30T14:17:05.972Z,22.80
2022-09-30T14:18:23.257Z,22.70
2022-09-30T14:20:01.033Z,23.00
2022-09-30T14:21:28.141Z,23.20
2022-09-30T14:22:32.961Z,23.10
2022-09-30T14:23:36.526Z,23.20
2022-09-30T14:24:40.231Z,23.40
2022-09-30T14:25:57.024Z,23.50
2022-09-30T14:27:19.463Z,23.20
2022-09-30T14:28:49.800Z,23.00
2022-09-30T14:30:11.577Z,23.00
2022-09-30T14:31:16.112Z,23.10
2022-09-30T14:32:25.965Z,23.40
2022-09-30T14:33:28.383Z,23.40
2022-09-30T14:34:30.979Z,23.10
2022-09-30T14:35:34.697Z,23.40
2022-09-30T14:36:36.422Z,23.70
2022-09-30T14:37:45.119Z,23.80
2022-09-30T14:38:53.761Z,24.10
2022-09-30T14:39:56.083Z,24.40
2022-09-30T14:41:07.856Z,24.50
2022-09-30T14:42:17.697Z,24.40
2022-09-30T14:43:38.859Z,24.10
2022-09-30T14:44:43.575Z,24.40
2022-09-30T14:45:50.888Z,24.50
2022-09-30T14:47:00.065Z,24.40
2022-09-30T14:48:08.155Z,24.20
2022-09-30T14:49:16.447Z,23.80
2022-09-30T14:50:26.281Z,23.80
2022-09-30T14:51:34.746Z,23.20
2022-09-30T14:52:45.179Z,23.00
2022-09-30T14:53:58.306Z,22.80
2022-09-30T14:54:59.911Z,22.40
2022-09-30T14:56:04.463Z,22.10
2022-09-30T14:57:16.503Z,22.00
2022-09-30T14:58:24.504Z,21.70
2022-09-30T14:59:34.663Z,21.20
2022-09-30T15:00:37.855Z,20.90
2022-09-30T15:01:40.643Z,20.60
2022-09-30T15:02:46.731Z,20.50
2022-09-30T15:04:04.340Z,20.00
2022-09-30T15:05:06.270Z,19.90
2022-09-30T15:06:19.116Z,19.70
2022-09-30T15:07:20.843Z,19.40
2022-09-30T15:08:23.396Z,19.20
2022-09-30T15:09:39.810Z,19.10
2022-09-30T15:10:50.870Z,18.90
2022-09-30T15:11:52.916Z,18.70
2022-09-30T15:12:56.166Z,18.60
2022-09-30T15:14:06.896Z,18.40
2022-09-30T15:15:34.086Z,18.30
2022-09-30T15:16:46.551Z,18.30
2022-09-30T15:17:48.307Z,18.20
2022-09-30T15:18:49.928Z,18.00